createdAt,value
2017-08-18T00:00:03.388Z,1004.43
2017-08-18T00:01:03.414Z,1004.4
2017-08-18T00:02:03.440Z,1004.38
2017-08-18T00:03:03.466Z,1004.39
2017-08-18T00:04:03.492Z,1004.37
2017-08-18T00:05:03.517Z,1004.28
2017-08-18T00:06:03.545Z,1004.31
2017-08-18T00:07:03.571Z,1004.31
2017-08-18T00:08:03.597Z,1004.31
2017-08-18T00:09:03.623Z,1004.3
2017-08-18T00:10:03.649Z,1004.29
2017-08-18T00:11:03.676Z,1004.25
2017-08-18T00:12:03.701Z,1004.26
2017-08-18T00:13:03.729Z,1004.25
2017-08-18T00:14:03.756Z,1004.29
2017-08-18T00:15:03.781Z,1004.23
2017-08-18T00:16:03.808Z,1004.21
2017-08-18T00:17:03.831Z,1004.24
2017-08-18T00:18:03.860Z,1004.29
2017-08-18T00:19:03.886Z,1004.28
2017-08-18T00:20:03.911Z,1004.28
2017-08-18T00:21:03.941Z,1004.28
2017-08-18T00:22:03.962Z,1004.3
2017-08-18T00:23:03.986Z,1004.34
2017-08-18T00:24:04.015Z,1004.31
2017-08-18T00:25:04.041Z,1004.34
2017-08-18T00:26:04.067Z,1004.36
2017-08-18T00:27:04.091Z,1004.33
2017-08-18T00:28:04.118Z,1004.31
2017-08-18T00:29:04.143Z,1004.31
2017-08-18T00:30:04.171Z,1004.27
2017-08-18T00:31:04.194Z,1004.28
2017-08-18T00:32:04.221Z,1004.3
2017-08-18T00:33:04.248Z,1004.29
2017-08-18T00:34:04.273Z,1004.27
2017-08-18T00:35:04.300Z,1004.29
2017-08-18T00:36:04.324Z,1004.3
2017-08-18T00:37:04.351Z,1004.32
2017-08-18T00:38:04.376Z,1004.35
2017-08-18T00:39:04.401Z,1004.37
2017-08-18T00:40:04.426Z,1004.38
2017-08-18T00:41:04.455Z,1004.37
2017-08-18T00:42:04.479Z,1004.37
2017-08-18T00:43:04.506Z,1004.39
2017-08-18T00:44:04.531Z,1004.36
2017-08-18T00:45:04.556Z,1004.37
2017-08-18T00:46:04.582Z,1004.37
2017-08-18T00:47:04.608Z,1004.36
2017-08-18T00:48:04.634Z,1004.34
2017-08-18T00:49:04.663Z,1004.36
2017-08-18T00:50:04.684Z,1004.35
2017-08-18T00:51:04.710Z,1004.35
2017-08-18T00:52:04.735Z,1004.35
2017-08-18T00:53:04.762Z,1004.35
2017-08-18T00:54:04.788Z,1004.38
2017-08-18T00:55:04.813Z,1004.35
2017-08-18T00:56:04.839Z,1004.41
2017-08-18T00:57:04.865Z,1004.37
2017-08-18T00:58:04.895Z,1004.38
2017-08-18T00:59:04.916Z,1004.36
2017-08-18T01:00:04.940Z,1004.32
2017-08-18T01:01:04.967Z,1004.37
2017-08-18T01:02:04.992Z,1004.4
2017-08-18T01:03:05.019Z,1004.36
2017-08-18T01:04:05.045Z,1004.39
2017-08-18T01:05:05.070Z,1004.32
2017-08-18T01:06:05.094Z,1004.34
2017-08-18T01:07:05.119Z,1004.35
2017-08-18T01:08:05.146Z,1004.37
2017-08-18T01:09:05.171Z,1004.35
2017-08-18T01:10:05.197Z,1004.36
2017-08-18T01:11:05.222Z,1004.39
2017-08-18T01:12:05.247Z,1004.35
2017-08-18T01:13:05.273Z,1004.34
2017-08-18T01:14:05.300Z,1004.35
2017-08-18T01:15:05.326Z,1004.34
2017-08-18T01:16:05.350Z,1004.32
2017-08-18T01:17:05.443Z,1004.34
2017-08-18T01:18:05.439Z,1004.31
2017-08-18T01:19:05.430Z,1004.35
2017-08-18T01:20:05.452Z,1004.33
2017-08-18T01:21:05.478Z,1004.3
2017-08-18T01:22:05.502Z,1004.26
2017-08-18T01:23:05.529Z,1004.25
2017-08-18T01:24:05.557Z,1004.22
2017-08-18T01:25:05.646Z,1004.28
2017-08-18T01:26:05.609Z,1004.29
2017-08-18T01:27:05.629Z,1004.3
2017-08-18T01:28:05.656Z,1004.25
2017-08-18T01:29:05.681Z,1004.25
2017-08-18T01:30:05.707Z,1004.24
2017-08-18T01:31:05.731Z,1004.24
2017-08-18T01:32:05.757Z,1004.28
2017-08-18T01:33:05.783Z,1004.31
2017-08-18T01:34:05.807Z,1004.34
2017-08-18T01:35:05.833Z,1004.33
2017-08-18T01:36:05.860Z,1004.33
2017-08-18T01:37:05.886Z,1004.33
2017-08-18T01:38:05.915Z,1004.25
2017-08-18T01:39:05.935Z,1004.2
2017-08-18T01:40:05.958Z,1004.17
2017-08-18T01:41:05.988Z,1004.15
2017-08-18T01:42:06.012Z,1004.11
2017-08-18T01:43:06.037Z,1004.13
2017-08-18T01:44:06.061Z,1004.12
2017-08-18T01:45:06.085Z,1004.11
2017-08-18T01:46:06.112Z,1004.09
2017-08-18T01:47:06.136Z,1004.11
2017-08-18T01:48:06.162Z,1004.09
2017-08-18T01:49:06.196Z,1004.13
2017-08-18T01:50:06.212Z,1004.12
2017-08-18T01:51:06.238Z,1004.1
2017-08-18T01:52:06.263Z,1004.12
2017-08-18T01:53:06.288Z,1004.13
2017-08-18T01:54:06.313Z,1004.1
2017-08-18T01:55:06.340Z,1004.08
2017-08-18T01:56:06.364Z,1004.11
2017-08-18T01:57:06.394Z,1004.12
2017-08-18T01:58:06.415Z,1004.11
2017-08-18T01:59:06.441Z,1004.07
2017-08-18T02:00:06.466Z,1004.08
2017-08-18T02:01:06.492Z,1004.07
2017-08-18T02:02:06.517Z,1004.06
2017-08-18T02:03:06.540Z,1004.06
2017-08-18T02:04:06.566Z,1004.05
2017-08-18T02:05:06.592Z,1004
2017-08-18T02:06:06.616Z,1003.98
2017-08-18T02:07:06.641Z,1004.01
2017-08-18T02:08:06.666Z,1004
2017-08-18T02:09:06.692Z,1003.96
2017-08-18T02:10:06.717Z,1003.96
2017-08-18T02:11:06.740Z,1003.94
2017-08-18T02:12:06.766Z,1003.9
2017-08-18T02:13:06.791Z,1003.91
2017-08-18T02:14:06.818Z,1003.89
2017-08-18T02:15:06.842Z,1003.88
2017-08-18T02:16:06.867Z,1003.89
2017-08-18T02:17:06.892Z,1003.88
2017-08-18T02:18:06.917Z,1003.83
2017-08-18T02:19:06.944Z,1003.82
2017-08-18T02:20:06.968Z,1003.82
2017-08-18T02:21:06.993Z,1003.83
2017-08-18T02:22:07.016Z,1003.78
2017-08-18T02:23:07.044Z,1003.78
2017-08-18T02:24:07.067Z,1003.8
2017-08-18T02:25:07.090Z,1003.76
2017-08-18T02:26:07.116Z,1003.75
2017-08-18T02:27:07.143Z,1003.74
2017-08-18T02:28:07.168Z,1003.72
2017-08-18T02:29:07.190Z,1003.78
2017-08-18T02:30:07.216Z,1003.79
2017-08-18T02:31:07.244Z,1003.82
2017-08-18T02:32:07.269Z,1003.85
2017-08-18T02:33:07.292Z,1003.87
2017-08-18T02:34:07.317Z,1003.85
2017-08-18T02:35:07.343Z,1003.83
2017-08-18T02:36:07.365Z,1003.86
2017-08-18T02:37:07.390Z,1003.88
2017-08-18T02:38:07.416Z,1003.82
2017-08-18T02:39:07.440Z,1003.82
2017-08-18T02:40:07.464Z,1003.78
2017-08-18T02:41:07.489Z,1003.83
2017-08-18T02:42:07.516Z,1003.81
2017-08-18T02:43:07.540Z,1003.83
2017-08-18T02:44:07.565Z,1003.86
2017-08-18T02:45:07.590Z,1003.87
2017-08-18T02:46:07.615Z,1003.89
2017-08-18T02:47:07.636Z,1003.89
2017-08-18T02:48:07.664Z,1003.9
2017-08-18T02:49:07.959Z,1003.91
2017-08-18T02:50:07.734Z,1003.92
2017-08-18T02:51:07.739Z,1003.89
2017-08-18T02:52:07.763Z,1003.93
2017-08-18T02:53:07.788Z,1003.94
2017-08-18T02:54:07.814Z,1003.93
2017-08-18T02:55:07.839Z,1003.89
2017-08-18T02:56:07.862Z,1003.89
2017-08-18T02:57:07.898Z,1003.91
2017-08-18T02:58:07.911Z,1003.88
2017-08-18T02:59:07.936Z,1003.89
2017-08-18T03:00:07.960Z,1003.89
2017-08-18T03:01:07.986Z,1003.94
2017-08-18T03:02:08.011Z,1003.92
2017-08-18T03:03:08.154Z,1003.93
2017-08-18T03:04:08.153Z,1003.96
2017-08-18T03:05:08.083Z,1003.92
2017-08-18T03:06:08.110Z,1003.91
2017-08-18T03:07:08.132Z,1003.89
2017-08-18T03:08:08.163Z,1003.9
2017-08-18T03:09:08.183Z,1003.91
2017-08-18T03:10:08.207Z,1003.86
2017-08-18T03:11:08.232Z,1003.87
2017-08-18T03:12:08.342Z,1003.84
2017-08-18T03:13:08.281Z,1003.86
2017-08-18T03:14:08.305Z,1003.86
2017-08-18T03:15:08.328Z,1003.89
2017-08-18T03:16:08.354Z,1003.92
2017-08-18T03:17:08.632Z,1003.93
2017-08-18T03:18:08.405Z,1003.92
2017-08-18T03:19:08.483Z,1003.92
2017-08-18T03:20:08.453Z,1003.97
2017-08-18T03:21:08.477Z,1003.9
2017-08-18T03:22:08.502Z,1003.91
2017-08-18T03:23:08.528Z,1003.86
2017-08-18T03:24:08.551Z,1003.91
2017-08-18T03:25:08.576Z,1003.91
2017-08-18T03:26:08.841Z,1003.89
2017-08-18T03:27:08.645Z,1003.92
2017-08-18T03:28:08.849Z,1003.94
2017-08-18T03:29:08.676Z,1003.96
2017-08-18T03:30:08.699Z,1003.98
2017-08-18T03:31:08.729Z,1003.95
2017-08-18T03:32:08.746Z,1003.92
2017-08-18T03:33:08.773Z,1003.91
2017-08-18T03:34:08.798Z,1003.88
2017-08-18T03:35:08.819Z,1003.9
2017-08-18T03:36:08.842Z,1003.87
2017-08-18T03:37:08.869Z,1003.84
2017-08-18T03:38:08.893Z,1003.83
2017-08-18T03:39:08.914Z,1003.83
2017-08-18T03:40:08.943Z,1003.86
2017-08-18T03:41:08.968Z,1003.87
2017-08-18T03:42:08.992Z,1003.88
2017-08-18T03:43:09.014Z,1003.88
2017-08-18T03:44:09.038Z,1003.87
2017-08-18T03:45:09.063Z,1003.88
2017-08-18T03:46:09.088Z,1003.82
2017-08-18T03:47:09.122Z,1003.81
2017-08-18T03:48:09.254Z,1003.82
2017-08-18T03:49:09.158Z,1003.83
2017-08-18T03:50:09.184Z,1003.85
2017-08-18T03:51:09.299Z,1003.84
2017-08-18T03:52:09.335Z,1003.87
2017-08-18T03:53:09.334Z,1003.88
2017-08-18T03:54:09.282Z,1003.88
2017-08-18T03:55:09.333Z,1003.87
2017-08-18T03:56:09.332Z,1003.89
2017-08-18T03:57:09.355Z,1003.92
2017-08-18T03:58:09.440Z,1003.89
2017-08-18T03:59:09.478Z,1003.95
2017-08-18T04:00:09.477Z,1003.95
2017-08-18T04:01:09.477Z,1003.96
2017-08-18T04:02:09.475Z,1003.93
2017-08-18T04:03:09.499Z,1003.91
2017-08-18T04:04:09.522Z,1003.91
2017-08-18T04:05:09.546Z,1003.91
2017-08-18T04:06:09.573Z,1003.92
2017-08-18T04:07:09.596Z,1003.91
2017-08-18T04:08:09.621Z,1003.9
2017-08-18T04:09:09.645Z,1003.89
2017-08-18T04:10:09.670Z,1003.89
2017-08-18T04:11:09.693Z,1003.9
2017-08-18T04:12:09.717Z,1003.91
2017-08-18T04:13:09.741Z,1003.96
2017-08-18T04:14:09.765Z,1003.96
2017-08-18T04:15:09.789Z,1003.93
2017-08-18T04:16:09.818Z,1003.92
2017-08-18T04:17:09.837Z,1003.91
2017-08-18T04:18:09.863Z,1003.91
2017-08-18T04:19:09.884Z,1003.89
2017-08-18T04:20:09.908Z,1003.84
2017-08-18T04:21:09.937Z,1003.84
2017-08-18T04:22:09.957Z,1003.83
2017-08-18T04:23:09.982Z,1003.77
2017-08-18T04:24:10.007Z,1003.78
2017-08-18T04:25:10.108Z,1003.77
2017-08-18T04:26:10.073Z,1003.78
2017-08-18T04:27:10.077Z,1003.78
2017-08-18T04:28:10.103Z,1003.75
2017-08-18T04:29:10.127Z,1003.75
2017-08-18T04:30:10.148Z,1003.71
2017-08-18T04:31:10.174Z,1003.73
2017-08-18T04:32:10.197Z,1003.73
2017-08-18T04:33:10.221Z,1003.74
2017-08-18T04:34:10.247Z,1003.75
2017-08-18T04:35:10.268Z,1003.75
2017-08-18T04:36:10.296Z,1003.82
2017-08-18T04:37:10.318Z,1003.78
2017-08-18T04:38:10.342Z,1003.8
2017-08-18T04:39:10.365Z,1003.77
2017-08-18T04:40:10.389Z,1003.81
2017-08-18T04:41:10.414Z,1003.79
2017-08-18T04:42:10.437Z,1003.8
2017-08-18T04:43:10.463Z,1003.79
2017-08-18T04:44:10.490Z,1003.77
2017-08-18T04:45:10.509Z,1003.76
2017-08-18T04:46:10.533Z,1003.74
2017-08-18T04:47:10.560Z,1003.68
2017-08-18T04:48:10.592Z,1003.64
2017-08-18T04:49:10.606Z,1003.67
2017-08-18T04:50:10.628Z,1003.62
2017-08-18T04:51:10.654Z,1003.65
2017-08-18T04:52:10.677Z,1003.66
2017-08-18T04:53:10.701Z,1003.68
2017-08-18T04:54:10.927Z,1003.63
2017-08-18T04:55:10.749Z,1003.63
2017-08-18T04:56:10.773Z,1003.65
2017-08-18T04:57:10.798Z,1003.69
2017-08-18T04:58:10.822Z,1003.64
2017-08-18T04:59:10.846Z,1003.68
2017-08-18T05:00:10.867Z,1003.64
2017-08-18T05:01:10.894Z,1003.7
2017-08-18T05:02:10.917Z,1003.69
2017-08-18T05:03:10.940Z,1003.71
2017-08-18T05:04:10.965Z,1003.7
2017-08-18T05:05:10.987Z,1003.72
2017-08-18T05:06:11.012Z,1003.68
2017-08-18T05:07:11.034Z,1003.68
2017-08-18T05:08:11.059Z,1003.72
2017-08-18T05:09:11.081Z,1003.74
2017-08-18T05:10:11.108Z,1003.73
2017-08-18T05:11:11.132Z,1003.75
2017-08-18T05:12:11.156Z,1003.73
2017-08-18T05:13:11.178Z,1003.73
2017-08-18T05:14:11.202Z,1003.76
2017-08-18T05:15:11.226Z,1003.76
2017-08-18T05:16:11.250Z,1003.79
2017-08-18T05:17:11.277Z,1003.76
2017-08-18T05:18:11.299Z,1003.76
2017-08-18T05:19:11.322Z,1003.78
2017-08-18T05:20:11.345Z,1003.76
2017-08-18T05:21:11.369Z,1003.77
2017-08-18T05:22:11.391Z,1003.8
2017-08-18T05:23:11.418Z,1003.81
2017-08-18T05:24:11.438Z,1003.84
2017-08-18T05:25:11.463Z,1003.89
2017-08-18T05:26:11.491Z,1003.86
2017-08-18T05:27:11.512Z,1003.89
2017-08-18T05:28:11.536Z,1003.89
2017-08-18T05:29:11.559Z,1003.89
2017-08-18T05:30:11.584Z,1003.87
2017-08-18T05:31:11.608Z,1003.86
2017-08-18T05:32:11.630Z,1003.88
2017-08-18T05:33:11.655Z,1003.84
2017-08-18T05:34:11.682Z,1003.88
2017-08-18T05:35:11.702Z,1003.89
2017-08-18T05:36:11.726Z,1003.85
2017-08-18T05:37:11.748Z,1003.83
2017-08-18T05:38:11.774Z,1003.76
2017-08-18T05:39:11.796Z,1003.8
2017-08-18T05:40:11.820Z,1003.75
2017-08-18T05:41:11.845Z,1003.75
2017-08-18T05:42:11.868Z,1003.73
2017-08-18T05:43:11.892Z,1003.75
2017-08-18T05:44:11.917Z,1003.76
2017-08-18T05:45:11.939Z,1003.78
2017-08-18T05:46:11.963Z,1003.78
2017-08-18T05:47:11.986Z,1003.77
2017-08-18T05:48:12.011Z,1003.77
2017-08-18T05:49:12.031Z,1003.76
2017-08-18T05:50:12.058Z,1003.72
2017-08-18T05:51:12.080Z,1003.69
2017-08-18T05:52:12.105Z,1003.7
2017-08-18T05:53:12.130Z,1003.7
2017-08-18T05:54:12.155Z,1003.68
2017-08-18T05:55:12.179Z,1003.63
2017-08-18T05:56:12.201Z,1003.66
2017-08-18T05:57:12.224Z,1003.63
2017-08-18T05:58:12.247Z,1003.59
2017-08-18T05:59:12.272Z,1003.61
2017-08-18T06:00:12.296Z,1003.57
2017-08-18T06:01:12.321Z,1003.58
2017-08-18T06:02:12.344Z,1003.57
2017-08-18T06:03:12.366Z,1003.56
2017-08-18T06:04:12.391Z,1003.53
2017-08-18T06:05:12.415Z,1003.58
2017-08-18T06:06:12.437Z,1003.63
2017-08-18T06:07:12.463Z,1003.59
2017-08-18T06:08:12.486Z,1003.64
2017-08-18T06:09:12.510Z,1003.64
2017-08-18T06:10:12.538Z,1003.66
2017-08-18T06:11:12.558Z,1003.63
2017-08-18T06:12:12.580Z,1003.61
2017-08-18T06:13:12.606Z,1003.65
2017-08-18T06:14:12.631Z,1003.64
2017-08-18T06:15:12.655Z,1003.6
2017-08-18T06:16:12.678Z,1003.59
2017-08-18T06:17:12.704Z,1003.57
2017-08-18T06:18:12.727Z,1003.6
2017-08-18T06:19:12.750Z,1003.63
2017-08-18T06:20:12.775Z,1003.61
2017-08-18T06:21:12.799Z,1003.62
2017-08-18T06:22:12.822Z,1003.62
2017-08-18T06:23:12.844Z,1003.63
2017-08-18T06:24:12.871Z,1003.6
2017-08-18T06:25:12.893Z,1003.66
2017-08-18T06:26:12.919Z,1003.64
2017-08-18T06:27:12.944Z,1003.61
2017-08-18T06:28:12.966Z,1003.64
2017-08-18T06:29:12.993Z,1003.63
2017-08-18T06:30:13.018Z,1003.64
2017-08-18T06:31:13.040Z,1003.62
2017-08-18T06:32:13.065Z,1003.59
2017-08-18T06:33:13.087Z,1003.56
2017-08-18T06:34:13.112Z,1003.53
2017-08-18T06:35:13.139Z,1003.54
2017-08-18T06:36:13.160Z,1003.52
2017-08-18T06:37:13.185Z,1003.53
2017-08-18T06:38:13.210Z,1003.52
2017-08-18T06:39:13.232Z,1003.48
2017-08-18T06:40:13.258Z,1003.48
2017-08-18T06:41:13.280Z,1003.46
2017-08-18T06:42:13.306Z,1003.41
2017-08-18T06:43:13.332Z,1003.42
2017-08-18T06:44:13.353Z,1003.39
2017-08-18T06:45:13.379Z,1003.36
2017-08-18T06:46:13.407Z,1003.33
2017-08-18T06:47:13.427Z,1003.35
2017-08-18T06:48:13.451Z,1003.33
2017-08-18T06:49:13.474Z,1003.33
2017-08-18T06:50:13.500Z,1003.34
2017-08-18T06:51:13.525Z,1003.35
2017-08-18T06:52:13.547Z,1003.39
2017-08-18T06:53:13.578Z,1003.39
2017-08-18T06:54:13.599Z,1003.41
2017-08-18T06:55:13.620Z,1003.4
2017-08-18T06:56:13.645Z,1003.42
2017-08-18T06:57:13.673Z,1003.41
2017-08-18T06:58:13.695Z,1003.48
2017-08-18T06:59:13.719Z,1003.49
2017-08-18T07:00:13.744Z,1003.43
2017-08-18T07:01:13.768Z,1003.39
2017-08-18T07:02:13.793Z,1003.38
2017-08-18T07:03:13.911Z,1003.34
2017-08-18T07:04:13.840Z,1003.32
2017-08-18T07:05:13.866Z,1003.34
2017-08-18T07:06:13.890Z,1003.35
2017-08-18T07:07:13.913Z,1003.36
2017-08-18T07:08:13.938Z,1003.31
2017-08-18T07:09:13.961Z,1003.32
2017-08-18T07:10:13.987Z,1003.33
2017-08-18T07:11:14.011Z,1003.34
2017-08-18T07:12:14.036Z,1003.33
2017-08-18T07:13:14.060Z,1003.34
2017-08-18T07:14:14.084Z,1003.34
2017-08-18T07:15:14.109Z,1003.34
2017-08-18T07:16:14.133Z,1003.32
2017-08-18T07:17:14.158Z,1003.32
2017-08-18T07:18:14.184Z,1003.31
2017-08-18T07:19:14.209Z,1003.31
2017-08-18T07:20:14.241Z,1003.32
2017-08-18T07:21:14.256Z,1003.32
2017-08-18T07:22:14.281Z,1003.36
2017-08-18T07:23:14.306Z,1003.38
2017-08-18T07:24:14.331Z,1003.34
2017-08-18T07:25:14.356Z,1003.36
2017-08-18T07:26:14.384Z,1003.36
2017-08-18T07:27:14.405Z,1003.32
2017-08-18T07:28:14.430Z,1003.31
2017-08-18T07:29:14.454Z,1003.34
2017-08-18T07:30:14.480Z,1003.31
2017-08-18T07:31:14.503Z,1003.31
2017-08-18T07:32:14.528Z,1003.33
2017-08-18T07:33:14.553Z,1003.31
2017-08-18T07:34:14.579Z,1003.35
2017-08-18T07:35:14.604Z,1003.34
2017-08-18T07:36:14.629Z,1003.32
2017-08-18T07:37:14.654Z,1003.32
2017-08-18T07:38:14.680Z,1003.3
2017-08-18T07:39:14.704Z,1003.29
2017-08-18T07:40:14.726Z,1003.24
2017-08-18T07:41:14.755Z,1003.27
2017-08-18T07:42:14.777Z,1003.25
2017-08-18T07:43:14.803Z,1003.24
2017-08-18T07:44:14.828Z,1003.21
2017-08-18T07:45:14.853Z,1003.2
2017-08-18T07:46:14.879Z,1003.21
2017-08-18T07:47:15.011Z,1003.2
2017-08-18T07:48:14.927Z,1003.19
2017-08-18T07:49:14.953Z,1003.18
2017-08-18T07:50:14.982Z,1003.17
2017-08-18T07:51:15.002Z,1003.2
2017-08-18T07:52:15.095Z,1003.2
2017-08-18T07:53:15.052Z,1003.15
2017-08-18T07:54:15.078Z,1003.18
2017-08-18T07:55:15.103Z,1003.23
2017-08-18T07:56:15.129Z,1003.15
2017-08-18T07:57:15.154Z,1003.1
2017-08-18T07:58:15.180Z,1003.11
2017-08-18T07:59:15.202Z,1003.11
2017-08-18T08:00:15.230Z,1003.09
2017-08-18T08:01:15.256Z,1003.11
2017-08-18T08:02:15.282Z,1003.12
2017-08-18T08:03:15.308Z,1003.12
2017-08-18T08:04:15.333Z,1003.13
2017-08-18T08:05:15.360Z,1003.12
2017-08-18T08:06:15.383Z,1003.08
2017-08-18T08:07:15.409Z,1003.07
2017-08-18T08:08:15.436Z,1003.04
2017-08-18T08:09:15.460Z,1003.03
2017-08-18T08:10:15.487Z,1003
2017-08-18T08:11:15.512Z,1003
2017-08-18T08:12:15.537Z,1003.01
2017-08-18T08:13:15.561Z,1003.01
2017-08-18T08:14:15.591Z,1003.02
2017-08-18T08:15:15.616Z,1003.01
2017-08-18T08:16:15.642Z,1002.99
2017-08-18T08:17:15.667Z,1003.03
2017-08-18T08:18:15.693Z,1003.01
2017-08-18T08:19:15.720Z,1003.02
2017-08-18T08:20:15.743Z,1003
2017-08-18T08:21:15.776Z,1002.97
2017-08-18T08:22:15.823Z,1003
2017-08-18T08:23:15.821Z,1003.02
2017-08-18T08:24:15.850Z,1002.96
2017-08-18T08:25:15.874Z,1003.01
2017-08-18T08:26:15.899Z,1002.99
2017-08-18T08:27:15.928Z,1003.03
2017-08-18T08:28:15.953Z,1003.05
2017-08-18T08:29:15.979Z,1003.02
2017-08-18T08:30:16.004Z,1003.04
2017-08-18T08:31:16.032Z,1003.11
2017-08-18T08:32:16.058Z,1003.11
2017-08-18T08:33:16.085Z,1003.09
2017-08-18T08:34:16.110Z,1003.1
2017-08-18T08:35:16.137Z,1003.13
2017-08-18T08:36:16.163Z,1003.11
2017-08-18T08:37:16.190Z,1003.14
2017-08-18T08:38:16.217Z,1003.18
2017-08-18T08:39:16.244Z,1003.2
2017-08-18T08:40:16.269Z,1003.18
2017-08-18T08:41:16.297Z,1003.18
2017-08-18T08:42:16.322Z,1003.22
2017-08-18T08:43:16.349Z,1003.21
2017-08-18T08:44:16.375Z,1003.16
2017-08-18T08:45:16.403Z,1003.17
2017-08-18T08:46:16.428Z,1003.16
2017-08-18T08:47:16.658Z,1003.15
2017-08-18T08:48:16.486Z,1003.16
2017-08-18T08:49:16.510Z,1003.2
2017-08-18T08:50:16.551Z,1003.15
2017-08-18T08:51:16.568Z,1003.15
2017-08-18T08:52:16.593Z,1003.14
2017-08-18T08:53:16.618Z,1003.1
2017-08-18T08:54:16.645Z,1003.13
2017-08-18T08:55:16.674Z,1003.07
2017-08-18T08:56:16.701Z,1003.1
2017-08-18T08:57:16.728Z,1003.08
2017-08-18T08:58:16.755Z,1003.07
2017-08-18T08:59:16.784Z,1003.09
2017-08-18T09:00:16.810Z,1003.06
2017-08-18T09:01:16.840Z,1003.06
2017-08-18T09:02:16.869Z,1003.07
2017-08-18T09:03:16.893Z,1003.07
2017-08-18T09:04:16.922Z,1003.06
2017-08-18T09:05:16.945Z,1003.06
2017-08-18T09:06:16.975Z,1003.04
2017-08-18T09:07:17.002Z,1003.04
2017-08-18T09:08:17.061Z,1003.03
2017-08-18T09:09:17.058Z,1003.05
2017-08-18T09:10:17.084Z,1003.07
2017-08-18T09:11:17.111Z,1003.09
2017-08-18T09:12:17.140Z,1003.03
2017-08-18T09:13:17.169Z,1003.07
2017-08-18T09:14:17.201Z,1003.07
2017-08-18T09:15:17.220Z,1003.11
2017-08-18T09:16:17.249Z,1003.08
2017-08-18T09:17:17.479Z,1003.12
2017-08-18T09:18:17.306Z,1003.06
2017-08-18T09:19:17.334Z,1003.09
2017-08-18T09:20:17.362Z,1003.06
2017-08-18T09:21:17.391Z,1003.06
2017-08-18T09:22:17.417Z,1003.02
2017-08-18T09:23:17.443Z,1003.02
2017-08-18T09:24:17.473Z,1002.99
2017-08-18T09:25:17.499Z,1003.03
2017-08-18T09:26:17.531Z,1003.06
2017-08-18T09:27:17.571Z,1003.05
2017-08-18T09:28:17.584Z,1003
2017-08-18T09:29:17.614Z,1002.98
2017-08-18T09:30:17.640Z,1002.95
2017-08-18T09:31:17.668Z,1003
2017-08-18T09:32:17.699Z,1002.92
2017-08-18T09:33:17.743Z,1002.95
2017-08-18T09:34:17.754Z,1002.95
2017-08-18T09:35:17.783Z,1002.91
2017-08-18T09:36:17.813Z,1002.87
2017-08-18T09:37:17.838Z,1002.86
2017-08-18T09:38:17.873Z,1002.83
2017-08-18T09:39:17.898Z,1002.81
2017-08-18T09:40:17.924Z,1002.82
2017-08-18T09:41:17.953Z,1002.79
2017-08-18T09:42:17.978Z,1002.77
2017-08-18T09:43:18.011Z,1002.74
2017-08-18T09:44:18.037Z,1002.7
2017-08-18T09:45:18.066Z,1002.74
2017-08-18T09:46:18.092Z,1002.67
2017-08-18T09:47:18.121Z,1002.63
2017-08-18T09:48:18.150Z,1002.6
2017-08-18T09:49:18.180Z,1002.6
2017-08-18T09:50:18.209Z,1002.58
2017-08-18T09:51:18.236Z,1002.61
2017-08-18T09:52:18.266Z,1002.62
2017-08-18T09:53:18.295Z,1002.57
2017-08-18T09:54:18.323Z,1002.59
2017-08-18T09:55:18.350Z,1002.52
2017-08-18T09:56:18.381Z,1002.55
2017-08-18T09:57:18.407Z,1002.52
2017-08-18T09:58:18.436Z,1002.5
2017-08-18T09:59:18.465Z,1002.43
2017-08-18T10:00:18.492Z,1002.41
2017-08-18T10:01:18.525Z,1002.36
2017-08-18T10:02:18.551Z,1002.33
2017-08-18T10:03:18.582Z,1002.34
2017-08-18T10:04:18.611Z,1002.29
2017-08-18T10:05:18.641Z,1002.28
2017-08-18T10:06:18.669Z,1002.28
2017-08-18T10:07:18.697Z,1002.28
2017-08-18T10:08:18.728Z,1002.32
2017-08-18T10:09:18.753Z,1002.28
2017-08-18T10:10:18.783Z,1002.28
2017-08-18T10:11:18.903Z,1002.31
2017-08-18T10:12:18.841Z,1002.28
2017-08-18T10:13:18.868Z,1002.29
2017-08-18T10:14:18.898Z,1002.3
2017-08-18T10:15:18.929Z,1002.33
2017-08-18T10:16:18.958Z,1002.31
2017-08-18T10:17:18.986Z,1002.31
2017-08-18T10:18:19.017Z,1002.26
2017-08-18T10:19:19.045Z,1002.27
2017-08-18T10:20:19.074Z,1002.29
2017-08-18T10:21:19.106Z,1002.3
2017-08-18T10:22:19.133Z,1002.33
2017-08-18T10:23:19.162Z,1002.28
2017-08-18T10:24:19.246Z,1002.3
2017-08-18T10:25:19.220Z,1002.3
2017-08-18T10:26:19.251Z,1002.25
2017-08-18T10:27:19.283Z,1002.27
2017-08-18T10:28:19.312Z,1002.31
2017-08-18T10:29:19.337Z,1002.26
2017-08-18T10:30:19.386Z,1002.25
2017-08-18T10:31:19.398Z,1002.2
2017-08-18T10:32:19.425Z,1002.2
2017-08-18T10:33:19.454Z,1002.17
2017-08-18T10:34:19.485Z,1002.14
2017-08-18T10:35:19.515Z,1002.13
2017-08-18T10:36:19.543Z,1002.08
2017-08-18T10:37:19.575Z,1002.1
2017-08-18T10:38:19.604Z,1002.1
2017-08-18T10:39:19.634Z,1002.09
2017-08-18T10:40:19.663Z,1002.07
2017-08-18T10:41:19.692Z,1002.04
2017-08-18T10:42:19.722Z,1001.99
2017-08-18T10:43:19.750Z,1001.97
2017-08-18T10:44:19.778Z,1001.9
2017-08-18T10:45:19.810Z,1001.83
2017-08-18T10:46:19.838Z,1001.83
2017-08-18T10:47:19.871Z,1001.75
2017-08-18T10:48:19.902Z,1001.76
2017-08-18T10:49:19.931Z,1001.7
2017-08-18T10:50:19.957Z,1001.7
2017-08-18T10:51:19.987Z,1001.66
2017-08-18T10:52:20.024Z,1001.65
2017-08-18T10:53:20.046Z,1001.64
2017-08-18T10:54:20.077Z,1001.57
2017-08-18T10:55:20.107Z,1001.56
2017-08-18T10:56:20.135Z,1001.54
2017-08-18T10:57:20.167Z,1001.49
2017-08-18T10:58:20.201Z,1001.48
2017-08-18T10:59:20.227Z,1001.45
2017-08-18T11:00:20.258Z,1001.49
2017-08-18T11:01:20.288Z,1001.57
2017-08-18T11:02:20.314Z,1001.65
2017-08-18T11:03:20.346Z,1001.72
2017-08-18T11:04:20.377Z,1001.7
2017-08-18T11:05:20.405Z,1001.68
2017-08-18T11:06:20.437Z,1001.64
2017-08-18T11:07:20.467Z,1001.66
2017-08-18T11:08:20.495Z,1001.63
2017-08-18T11:09:20.527Z,1001.7
2017-08-18T11:10:20.556Z,1001.75
2017-08-18T11:11:20.588Z,1001.74
2017-08-18T11:12:20.618Z,1001.73
2017-08-18T11:13:20.649Z,1001.76
2017-08-18T11:14:20.679Z,1001.75
2017-08-18T11:15:20.705Z,1001.8
2017-08-18T11:16:20.738Z,1001.79
2017-08-18T11:17:20.770Z,1001.77
2017-08-18T11:18:20.802Z,1001.79
2017-08-18T11:19:20.829Z,1001.79
2017-08-18T11:20:20.860Z,1001.76
2017-08-18T11:21:20.890Z,1001.77
2017-08-18T11:22:20.919Z,1001.77
2017-08-18T11:23:20.951Z,1001.73
2017-08-18T11:24:20.981Z,1001.71
2017-08-18T11:25:21.012Z,1001.64
2017-08-18T11:26:21.042Z,1001.57
2017-08-18T11:27:21.072Z,1001.54
2017-08-18T11:28:21.101Z,1001.54
2017-08-18T11:29:21.133Z,1001.48
2017-08-18T11:30:21.162Z,1001.5
2017-08-18T11:31:21.194Z,1001.51
2017-08-18T11:32:21.224Z,1001.52
2017-08-18T11:33:21.254Z,1001.51
2017-08-18T11:34:21.284Z,1001.5
2017-08-18T11:35:21.317Z,1001.51
2017-08-18T11:36:21.348Z,1001.56
2017-08-18T11:37:21.376Z,1001.49
2017-08-18T11:38:21.406Z,1001.51
2017-08-18T11:39:21.435Z,1001.5
2017-08-18T11:40:21.473Z,1001.51
2017-08-18T11:41:21.497Z,1001.48
2017-08-18T11:42:21.529Z,1001.51
2017-08-18T11:43:21.560Z,1001.46
2017-08-18T11:44:21.590Z,1001.49
2017-08-18T11:45:21.631Z,1001.48
2017-08-18T11:46:21.650Z,1001.43
2017-08-18T11:47:21.682Z,1001.45
2017-08-18T11:48:21.712Z,1001.44
2017-08-18T11:49:21.743Z,1001.43
2017-08-18T11:50:21.772Z,1001.43
2017-08-18T11:51:21.802Z,1001.43
2017-08-18T11:52:21.833Z,1001.4
2017-08-18T11:53:21.863Z,1001.34
2017-08-18T11:54:21.894Z,1001.38
2017-08-18T11:55:21.925Z,1001.32
2017-08-18T11:56:21.956Z,1001.33
2017-08-18T11:57:21.986Z,1001.38
2017-08-18T11:58:22.030Z,1001.44
2017-08-18T11:59:22.048Z,1001.42
2017-08-18T12:00:22.077Z,1001.46
2017-08-18T12:01:22.110Z,1001.4
2017-08-18T12:02:22.142Z,1001.44
2017-08-18T12:03:22.170Z,1001.42
2017-08-18T12:04:22.201Z,1001.39
2017-08-18T12:05:22.230Z,1001.42
2017-08-18T12:06:22.260Z,1001.36
2017-08-18T12:07:22.293Z,1001.34
2017-08-18T12:08:22.324Z,1001.39